Casper-Natrona County International Airport
KCPR : now visible

Airfield :











YOU CAN JOIN US ON...

 
LOGIN :

Register | Disclaimer

   EN    FR    IT 

 









Legend :    VFR   Marginal VFR   IFR   Intensive IFR   Very Intensive IFR
Visi :
Ceiling :
>= 8 km
>= 3000ft
5 to 8 km
1000 to 3000 ft
1500m to 5 km
500 to 1000 ft
800 to 1500m
200 to 500 ft
< 800m
< 200 ft
Symbols :   Thunderstorms  Fog  Heavy snow  Heavy precipitations  Wind > 20 kt






- Airport Elevation : 5350 ft
- IATA code : CPR


KCPR - Casper-Natrona County International

CURRENT METAR :
  • 192253Z 24011KT 10SM CLR 14/M02 A2963 RMK AO2 SLP009 T01391017

EXPIRED METARs :
  • 192153Z 22012KT 10SM CLR 14/M01 A2963 RMK AO2 SLP002 T01441006
  • 192053Z 22016G21KT 10SM CLR 14/M01 A2964 RMK AO2 PK WND 22027/1958 SLP005 T01441006 56025
  • 191953Z 22020G29KT 10SM CLR 14/M01 A2966 RMK AO2 PK WND 22029/1950 SLP013 T01391011

TAF KCPR
Valid from the 19 at 12:00 until the 20 at 12:00 UTC


191140Z 1912/2012 22009KT P6SM FEW120 BKN200
FM191600 23015G25KT P6SM FEW120 SCT180
FM192200 24012KT P6SM SCT080 BKN120
FM201000 01010KT P6SM OVC015



MET'MAP, your aeronautical weather chart ! - Copyright ORBIFLY December 2007 - Disclaimer

ORBIFLY MET'MAP TEAM :

Programming & Development : Alexandra Zaïnal
Concept & Development : Baudouin d'Aumeries
Co-Development & Prog : Marc-Olivier Méhu
Technical & hardware support : Manuel Goepfert

Contact : metmap@orbifly.com




SOURCES & CREDITS :

   NOAA       Earth
Advisory